Time;durP1;ratioP1;P1;durP2;ratioP2;P2;SDS_P1;SDS_P2;PMS_P1;PMS_P2;Temp;Humidity;BMP_temperature;BMP_pressure;BME280_temperature;BME280_humidity;BME280_pressure;Samples;Min_cycle;Max_cycle;Signal;HPM_P1;HPM_P2
2022/08/05 00:00:27;;;;;;;6.88;4.63;;;;;;;26.96;38.27;98906.03;5091770;28;20070;-69
2022/08/05 00:02:55;;;;;;;6.07;5.05;;;;;;;26.97;38.04;98910.44;5091480;28;20056;-69
2022/08/05 00:05:24;;;;;;;5.20;4.38;;;;;;;26.93;38.30;98904.56;5090269;28;20064;-69
2022/08/05 00:07:51;;;;;;;4.35;3.67;;;;;;;26.93;38.22;98904.56;5091660;28;20312;-69
2022/08/05 00:10:18;;;;;;;7.95;4.78;;;;;;;26.92;38.14;98910.19;5091493;28;20063;-69
2022/08/05 00:12:45;;;;;;;5.25;4.20;;;;;;;26.89;38.81;98897.84;5091007;28;20056;-69
2022/08/05 00:15:12;;;;;;;5.47;4.13;;;;;;;26.90;38.50;98896.81;5091685;28;20056;-69
2022/08/05 00:17:40;;;;;;;4.38;3.58;;;;;;;26.89;38.51;98897.00;5091844;28;20056;-69
2022/08/05 00:20:08;;;;;;;4.22;3.35;;;;;;;26.79;38.84;98900.06;5091325;28;20060;-69
2022/08/05 00:22:37;;;;;;;5.90;3.95;;;;;;;26.80;39.06;98896.31;5091837;28;20058;-69
2022/08/05 00:25:05;;;;;;;4.32;3.80;;;;;;;26.80;38.35;98899.88;5091321;28;20052;-69
2022/08/05 00:27:32;;;;;;;5.90;3.80;;;;;;;26.82;38.70;98889.66;5091630;28;20114;-68
2022/08/05 00:30:00;;;;;;;5.47;3.67;;;;;;;26.81;38.66;98879.81;5091416;28;20370;-69
2022/08/05 00:32:27;;;;;;;5.35;3.47;;;;;;;26.78;38.92;98882.09;5091193;28;20114;-69
2022/08/05 00:34:54;;;;;;;6.45;3.92;;;;;;;26.76;38.77;98879.56;5091442;28;20052;-69
2022/08/05 00:37:22;;;;;;;6.25;4.32;;;;;;;26.75;38.98;98877.88;5091261;28;20266;-70
2022/08/05 00:39:50;;;;;;;5.38;4.32;;;;;;;26.69;39.07;98869.69;5091317;28;20251;-69
2022/08/05 00:42:29;;;;;;;9.93;8.88;;;;;;;26.73;39.31;98876.41;5091574;28;20060;-69
2022/08/05 00:44:56;;;;;;;11.10;9.45;;;;;;;26.70;39.19;98874.94;5091087;28;20056;-69
2022/08/05 00:47:23;;;;;;;14.13;9.25;;;;;;;26.69;39.08;98872.41;5091185;28;20057;-69
2022/08/05 00:49:51;;;;;;;10.73;8.80;;;;;;;26.49;39.41;98864.09;5090900;28;20048;-69
2022/08/05 00:52:19;;;;;;;11.98;9.10;;;;;;;26.51;39.07;98854.72;5091352;28;20068;-69
2022/08/05 00:54:46;;;;;;;9.48;7.35;;;;;;;26.57;39.53;98863.94;5091084;28;20060;-69
2022/08/05 00:57:14;;;;;;;7.78;6.65;;;;;;;25.79;39.56;98731.94;5091366;28;20189;-69
2022/08/05 00:59:43;;;;;;;7.57;6.07;;;;;;;26.58;39.32;98864.78;5091175;28;20308;-68
2022/08/05 01:02:10;;;;;;;7.30;5.05;;;;;;;26.55;39.34;98866.84;5090969;28;20052;-69
2022/08/05 01:04:37;;;;;;;6.30;4.60;;;;;;;26.37;39.48;98841.22;5090789;28;20069;-68
2022/08/05 01:07:05;;;;;;;7.00;4.68;;;;;;;26.36;39.83;98848.53;5091004;28;20102;-68
2022/08/05 01:09:32;;;;;;;6.05;5.07;;;;;;;26.42;39.69;98857.78;5087125;28;20056;-68
2022/08/05 01:12:03;;;;;;;5.30;4.57;;;;;;;26.42;40.24;98855.91;5087994;28;20090;-68
2022/08/05 01:14:37;;;;;;;5.47;4.43;;;;;;;26.44;40.16;98851.09;5087962;28;20064;-68
2022/08/05 01:17:06;;;;;;;9.18;3.75;;;;;;;26.39;39.63;98845.44;5087708;28;20098;-68
2022/08/05 01:19:39;;;;;;;5.88;4.20;;;;;;;26.34;40.31;98856.06;5070274;28;20047;-68
2022/08/05 01:22:30;;;;;;;7.90;4.70;;;;;;;26.30;40.40;98856.63;5087807;28;20109;-68
2022/08/05 01:25:18;;;;;;;5.20;4.07;;;;;;;26.29;40.32;98853.09;5087564;28;20075;-67
2022/08/05 01:28:04;;;;;;;5.15;4.15;;;;;;;26.15;40.66;98830.41;5087817;28;20056;-67
2022/08/05 01:30:36;;;;;;;5.32;4.45;;;;;;;26.24;40.64;98850.13;5087344;28;20118;-68
2022/08/05 01:33:07;;;;;;;4.95;4.10;;;;;;;26.22;40.43;98852.19;5087803;28;20056;-68
2022/08/05 01:35:37;;;;;;;7.15;4.25;;;;;;;26.21;40.47;98850.50;5087300;28;20056;-69
2022/08/05 01:38:06;;;;;;;6.55;4.38;;;;;;;26.19;40.77;98858.03;5087341;28;20057;-68
2022/08/05 01:40:34;;;;;;;6.32;5.05;;;;;;;25.96;40.88;98831.06;5087022;28;20056;-69
2022/08/05 01:43:04;;;;;;;14.02;8.80;;;;;;;25.59;40.89;98777.91;5087479;28;20102;-69
2022/08/05 01:45:31;;;;;;;12.23;10.73;;;;;;;26.06;40.70;98845.16;5087438;28;20309;-68
2022/08/05 01:48:01;;;;;;;19.33;11.32;;;;;;;26.04;40.89;98846.41;5087267;28;20064;-68
2022/08/05 01:50:32;;;;;;;20.20;10.13;;;;;;;25.42;40.95;98750.19;5086923;28;20106;-69
2022/08/05 01:53:03;;;;;;;10.02;8.48;;;;;;;26.08;40.65;98842.25;5087488;28;20125;-68
2022/08/05 01:55:33;;;;;;;7.70;6.18;;;;;;;26.09;40.77;98850.22;5086980;28;20052;-68
2022/08/05 01:58:04;;;;;;;5.82;4.50;;;;;;;25.39;40.66;98741.63;5087202;28;20057;-67
2022/08/05 02:00:33;;;;;;;9.75;7.30;;;;;;;26.03;40.58;98844.72;5086826;28;20059;-68
2022/08/05 02:03:06;;;;;;;6.40;5.63;;;;;;;26.02;40.91;98840.31;5086657;28;20110;-68
2022/08/05 02:05:38;;;;;;;9.80;5.77;;;;;;;25.83;40.93;98822.78;5087114;28;20053;-68
2022/08/05 02:08:06;;;;;;;7.43;5.65;;;;;;;25.94;40.80;98833.13;5086940;28;20512;-68
2022/08/05 02:10:39;;;;;;;8.25;5.32;;;;;;;25.81;41.15;98809.41;5086777;28;20052;-67
2022/08/05 02:13:13;;;;;;;7.25;5.63;;;;;;;25.91;41.40;98838.94;5086789;28;20094;-68
2022/08/05 02:15:45;;;;;;;6.50;4.78;;;;;;;25.88;41.54;98840.19;5085548;28;20106;-69
2022/08/05 02:18:18;;;;;;;5.93;5.03;;;;;;;25.83;41.58;98822.78;5086579;28;20056;-68
2022/08/05 02:20:49;;;;;;;8.10;4.72;;;;;;;25.81;41.57;98828.41;5085611;28;20106;-68
2022/08/05 02:23:21;;;;;;;4.85;4.05;;;;;;;25.69;41.45;98807.44;5086724;28;20057;-69
2022/08/05 02:25:50;;;;;;;6.95;4.72;;;;;;;25.67;41.52;98807.63;5086499;28;20098;-68
2022/08/05 02:28:25;;;;;;;7.72;6.95;;;;;;;25.84;41.52;98832.63;5086245;28;20064;-68
2022/08/05 02:30:58;;;;;;;19.60;17.40;;;;;;;25.77;41.63;98832.56;5086536;28;20060;-68
2022/08/05 02:33:27;;;;;;;16.48;14.70;;;;;;;25.74;41.69;98832.94;5086082;28;20267;-69
2022/08/05 02:35:57;;;;;;;19.60;15.32;;;;;;;24.73;42.36;98676.63;5086159;28;20107;-68
2022/08/05 02:38:28;;;;;;;10.40;9.38;;;;;;;25.56;41.85;98811.69;5086554;28;20094;-69
2022/08/05 02:40:57;;;;;;;7.43;6.05;;;;;;;25.66;41.97;98829.53;5086109;28;20064;-68
2022/08/05 02:43:27;;;;;;;6.15;4.75;;;;;;;25.65;41.98;98831.41;5085693;28;20063;-68
2022/08/05 02:45:55;;;;;;;6.63;5.05;;;;;;;25.57;42.22;98824.22;5086214;28;20110;-69
2022/08/05 02:48:25;;;;;;;6.03;4.60;;;;;;;25.52;42.40;98823.97;5086270;28;20090;-69
2022/08/05 02:50:53;;;;;;;5.35;4.53;;;;;;;25.54;42.26;98819.19;5068166;28;20067;-69
2022/08/05 02:53:21;;;;;;;6.50;4.85;;;;;;;25.54;42.31;98816.47;5085788;28;20052;-69
2022/08/05 02:55:51;;;;;;;7.18;4.10;;;;;;;25.51;42.14;98818.72;5085985;28;20259;-68
2022/08/05 02:58:21;;;;;;;5.38;4.15;;;;;;;24.84;42.74;98724.91;5086139;28;20064;-69
2022/08/05 03:00:52;;;;;;;5.47;4.65;;;;;;;25.47;42.34;98828.28;5085574;28;20059;-69
2022/08/05 03:03:20;;;;;;;5.63;4.38;;;;;;;25.38;42.70;98813.16;5086056;28;20102;-69
2022/08/05 03:05:48;;;;;;;4.63;4.03;;;;;;;24.93;42.48;98739.19;5085689;28;20076;-68
2022/08/05 03:08:17;;;;;;;4.40;4.00;;;;;;;25.28;42.52;98791.75;5085927;28;20223;-68
2022/08/05 03:10:45;;;;;;;5.95;3.95;;;;;;;25.40;42.52;98811.94;5085809;28;20052;-68
2022/08/05 03:13:13;;;;;;;8.30;4.80;;;;;;;25.34;42.89;98812.72;5085722;28;20053;-68
2022/08/05 03:15:42;;;;;;;12.43;11.13;;;;;;;25.31;43.06;98820.34;5085296;28;20251;-69
2022/08/05 03:18:11;;;;;;;14.02;12.23;;;;;;;25.27;43.42;98800.91;5085353;28;20105;-68
2022/08/05 03:20:39;;;;;;;17.38;15.48;;;;;;;25.25;43.27;98808.41;5085259;28;20378;-68
2022/08/05 03:23:09;;;;;;;15.05;12.63;;;;;;;23.97;42.81;98583.19;5085539;28;20106;-68
2022/08/05 03:25:37;;;;;;;13.70;10.98;;;;;;;25.17;42.59;98782.25;5085349;28;20056;-68
2022/08/05 03:28:06;;;;;;;9.07;7.20;;;;;;;25.20;43.01;98800.84;5085059;28;20056;-69
2022/08/05 03:30:34;;;;;;;8.35;5.78;;;;;;;25.11;43.27;98784.88;5085349;28;20355;-68
2022/08/05 03:33:02;;;;;;;8.07;5.70;;;;;;;25.17;43.19;98798.50;5067877;28;20283;-68
2022/08/05 03:35:32;;;;;;;7.10;5.32;;;;;;;24.76;43.73;98743.16;5085617;28;20059;-68
2022/08/05 03:38:02;;;;;;;6.88;5.20;;;;;;;25.08;43.16;98786.09;5067442;28;20048;-67
2022/08/05 03:40:29;;;;;;;9.15;5.03;;;;;;;25.18;43.19;98807.50;5084962;28;20060;-68
2022/08/05 03:42:56;;;;;;;7.38;5.10;;;;;;;25.21;42.90;98807.94;5085467;28;20098;-68
2022/08/05 03:45:24;;;;;;;5.68;5.05;;;;;;;25.15;43.27;98808.72;5085241;28;20123;-68
2022/08/05 03:47:51;;;;;;;7.57;5.05;;;;;;;24.86;43.22;98760.78;5085127;28;20114;-69
2022/08/05 03:50:19;;;;;;;6.32;4.85;;;;;;;25.08;43.25;98813.22;5085116;28;20064;-68
2022/08/05 03:52:54;;;;;;;7.35;4.70;;;;;;;25.10;43.35;98813.88;5085082;28;20102;-68
2022/08/05 03:55:26;;;;;;;7.25;4.82;;;;;;;24.99;43.59;98792.63;5085191;28;20126;-67
2022/08/05 03:57:55;;;;;;;6.20;5.18;;;;;;;25.03;43.36;98814.81;5085208;28;20056;-68
2022/08/05 04:00:30;;;;;;;9.20;6.68;;;;;;;25.05;42.84;98816.31;5085287;28;20338;-68
2022/08/05 04:03:03;;;;;;;11.35;8.48;;;;;;;24.52;42.57;98731.56;5086012;28;20094;-68
2022/08/05 04:05:33;;;;;;;8.07;7.28;;;;;;;25.04;42.27;98817.34;5068154;28;20070;-67
2022/08/05 04:08:05;;;;;;;6.03;5.40;;;;;;;25.03;41.76;98812.09;5085489;28;20102;-67
2022/08/05 04:10:35;;;;;;;5.93;5.22;;;;;;;25.04;41.84;98806.50;5085570;28;20058;-67
2022/08/05 04:13:02;;;;;;;7.72;6.05;;;;;;;24.05;42.09;98648.06;5084932;28;20048;-68
2022/08/05 04:15:30;;;;;;;6.90;4.93;;;;;;;24.90;41.66;98788.34;5084700;28;20056;-67
2022/08/05 04:17:57;;;;;;;6.50;5.43;;;;;;;25.04;41.66;98805.66;5084745;28;20060;-68
2022/08/05 04:20:24;;;;;;;6.75;5.30;;;;;;;25.05;41.63;98802.75;5084948;28;20350;-67
2022/08/05 04:22:52;;;;;;;11.07;6.22;;;;;;;25.03;41.89;98812.09;5084616;28;20113;-68
2022/08/05 04:25:21;;;;;;;8.20;7.40;;;;;;;24.92;41.69;98797.13;5084977;28;20324;-68
2022/08/05 04:27:48;;;;;;;10.50;9.20;;;;;;;25.03;41.99;98806.69;5085068;28;20040;-68
2022/08/05 04:30:15;;;;;;;10.38;7.07;;;;;;;24.90;42.03;98789.19;5084771;28;20263;-67
2022/08/05 04:32:42;;;;;;;7.53;6.38;;;;;;;24.86;42.15;98785.19;5084508;28;20052;-67
2022/08/05 04:35:10;;;;;;;5.85;4.57;;;;;;;25.03;42.17;98803.97;5084806;28;20056;-67
2022/08/05 04:37:37;;;;;;;5.68;4.85;;;;;;;24.99;42.21;98799.94;5084637;28;20106;-68
2022/08/05 04:40:05;;;;;;;5.97;5.05;;;;;;;24.99;41.78;98802.66;5084697;28;20106;-68
2022/08/05 04:42:34;;;;;;;5.35;3.97;;;;;;;24.98;42.15;98801.81;5084727;28;20052;-68
2022/08/05 04:45:01;;;;;;;6.47;4.10;;;;;;;24.94;42.13;98804.06;5088626;28;20250;-67
2022/08/05 04:47:28;;;;;;;5.30;4.00;;;;;;;24.96;42.23;98812.00;5088537;28;20056;-68
2022/08/05 04:49:55;;;;;;;5.00;4.50;;;;;;;24.99;42.01;98808.06;5088068;28;20118;-68
2022/08/05 04:52:26;;;;;;;6.88;4.13;;;;;;;25.04;41.82;98811.06;5088763;28;20117;-67
2022/08/05 04:54:53;;;;;;;4.82;3.78;;;;;;;24.84;42.25;98813.50;5088365;28;20060;-67
2022/08/05 04:57:20;;;;;;;8.48;5.40;;;;;;;24.97;42.19;98810.97;5088216;28;20052;-68
2022/08/05 04:59:49;;;;;;;7.57;5.05;;;;;;;24.97;42.12;98805.53;5088122;28;20056;-68
2022/08/05 05:02:16;;;;;;;6.75;5.65;;;;;;;24.96;41.79;98809.28;5088322;28;20071;-68
2022/08/05 05:04:43;;;;;;;5.28;4.30;;;;;;;24.99;41.86;98799.94;5089428;28;20048;-68
2022/08/05 05:07:11;;;;;;;8.10;4.78;;;;;;;25.02;41.68;98796.88;5088486;28;20067;-67
2022/08/05 05:09:38;;;;;;;4.97;4.22;;;;;;;24.93;42.04;98802.38;5088446;28;20047;-68
2022/08/05 05:12:06;;;;;;;5.75;4.82;;;;;;;24.95;42.12;98805.72;5087987;28;20182;-67
2022/08/05 05:14:33;;;;;;;5.57;4.47;;;;;;;24.93;42.11;98804.25;5088024;28;20312;-67
2022/08/05 05:17:02;;;;;;;6.63;4.60;;;;;;;24.09;42.17;98662.88;5087822;28;20060;-68
2022/08/05 05:19:30;;;;;;;5.30;3.90;;;;;;;24.79;42.39;98788.84;5087582;28;20060;-68
2022/08/05 05:21:59;;;;;;;6.82;4.32;;;;;;;24.95;42.21;98803.03;5088444;28;20052;-68
2022/08/05 05:24:26;;;;;;;5.07;3.75;;;;;;;24.93;42.32;98804.25;5088150;28;20056;-68
2022/08/05 05:26:54;;;;;;;6.28;3.72;;;;;;;24.95;42.30;98797.59;5088185;28;20044;-68
2022/08/05 05:29:21;;;;;;;4.88;3.83;;;;;;;24.82;42.35;98783.03;5088285;28;20062;-67
2022/08/05 05:31:48;;;;;;;7.82;4.00;;;;;;;24.95;42.32;98808.44;5087702;28;20059;-67
2022/08/05 05:34:17;;;;;;;6.32;4.00;;;;;;;24.94;42.20;98798.63;5087861;28;20048;-68
2022/08/05 05:36:44;;;;;;;6.13;4.30;;;;;;;24.94;42.04;98804.06;5087440;28;20263;-68
2022/08/05 05:39:12;;;;;;;4.45;3.80;;;;;;;24.98;42.04;98804.50;5087179;28;20064;-68
2022/08/05 05:41:39;;;;;;;7.05;4.55;;;;;;;24.96;42.08;98812.00;5087307;28;20316;-68
2022/08/05 05:44:06;;;;;;;7.90;5.70;;;;;;;24.91;42.17;98807.13;5087784;28;20044;-68
2022/08/05 05:46:33;;;;;;;6.93;4.95;;;;;;;24.95;42.24;98807.59;5087107;28;20083;-68
2022/08/05 05:49:00;;;;;;;9.23;4.30;;;;;;;24.88;42.14;98795.84;5087273;28;20259;-67
2022/08/05 05:51:29;;;;;;;9.13;4.68;;;;;;;24.97;41.87;98800.13;5086787;28;20056;-67
2022/08/05 05:53:57;;;;;;;4.40;3.90;;;;;;;24.86;42.04;98789.75;5086794;28;20114;-67
2022/08/05 05:56:25;;;;;;;6.60;4.00;;;;;;;24.94;41.93;98803.22;5086711;28;20064;-67
2022/08/05 05:58:52;;;;;;;8.15;4.20;;;;;;;24.85;42.16;98780.78;5087157;28;20308;-68
2022/08/05 06:01:19;;;;;;;5.28;3.80;;;;;;;24.97;42.13;98808.25;5086991;28;20105;-68
2022/08/05 06:03:46;;;;;;;7.18;4.35;;;;;;;24.92;42.22;98814.25;5087057;28;20057;-67
2022/08/05 06:06:14;;;;;;;5.38;3.78;;;;;;;24.95;42.14;98813.88;5086783;28;20072;-68
2022/08/05 06:08:43;;;;;;;5.18;4.07;;;;;;;24.99;42.16;98827.88;5086887;28;20114;-67
2022/08/05 06:11:10;;;;;;;5.68;4.03;;;;;;;24.96;42.37;98812.00;5087008;28;20102;-67
2022/08/05 06:13:37;;;;;;;9.63;7.43;;;;;;;24.96;42.28;98812.84;5086847;28;20308;-68
2022/08/05 06:16:05;;;;;;;6.80;5.78;;;;;;;25.00;42.57;98815.16;5086750;28;20365;-68
2022/08/05 06:18:32;;;;;;;6.72;5.53;;;;;;;25.08;42.56;98817.78;5086234;28;20224;-67
2022/08/05 06:21:00;;;;;;;6.18;4.85;;;;;;;25.15;42.33;98814.13;5086659;28;20056;-67
2022/08/05 06:23:27;;;;;;;10.18;6.28;;;;;;;25.21;42.57;98818.78;5086123;28;20082;-68
2022/08/05 06:25:55;;;;;;;8.07;6.50;;;;;;;25.24;42.65;98817.56;5086293;28;20052;-67
2022/08/05 06:28:23;;;;;;;6.50;4.60;;;;;;;25.25;42.83;98817.38;5086427;28;20362;-68
2022/08/05 06:30:50;;;;;;;4.72;3.78;;;;;;;25.27;42.47;98818.03;5086555;28;20062;-67
2022/08/05 06:33:18;;;;;;;7.13;4.55;;;;;;;25.18;42.83;98805.63;5086549;28;20370;-67
2022/08/05 06:35:45;;;;;;;6.00;3.75;;;;;;;25.39;42.49;98828.41;5086518;28;20106;-67
2022/08/05 06:38:12;;;;;;;5.18;3.88;;;;;;;25.41;42.64;98829.91;5086110;28;20122;-67
2022/08/05 06:40:41;;;;;;;5.30;3.97;;;;;;;25.45;42.88;98835.78;5086580;28;20082;-67
2022/08/05 06:43:10;;;;;;;6.70;4.20;;;;;;;25.52;42.69;98831.25;5086210;28;20106;-68
2022/08/05 06:45:37;;;;;;;5.15;4.65;;;;;;;25.57;42.80;98831.53;5086038;28;20052;-67
2022/08/05 06:48:04;;;;;;;7.32;4.60;;;;;;;25.24;42.91;98775.03;5085976;28;20056;-67
2022/08/05 06:50:32;;;;;;;5.63;4.68;;;;;;;25.76;42.33;98832.75;5085728;28;20251;-68
2022/08/05 06:52:59;;;;;;;6.50;4.88;;;;;;;25.93;41.88;98826.03;5085731;28;20289;-67
2022/08/05 06:55:26;;;;;;;5.22;4.50;;;;;;;25.81;42.09;98786.88;5085866;28;20056;-68
2022/08/05 06:57:53;;;;;;;6.60;5.47;;;;;;;26.19;41.34;98818.13;5085930;28;20052;-68
2022/08/05 07:00:23;;;;;;;6.75;5.00;;;;;;;26.38;41.15;98826.59;5085558;28;20060;-68
2022/08/05 07:02:51;;;;;;;5.13;4.50;;;;;;;26.57;41.03;98825.06;5085691;28;20064;-68
2022/08/05 07:05:18;;;;;;;5.50;4.30;;;;;;;26.73;40.83;98809.28;5084983;28;20264;-68
2022/08/05 07:07:47;;;;;;;7.38;4.28;;;;;;;26.86;40.29;98792.22;5085558;28;20105;-68
2022/08/05 07:10:14;;;;;;;6.00;5.05;;;;;;;27.21;40.35;98812.00;5085775;28;20052;-67
2022/08/05 07:18:15;;;;;;;5.50;3.97;;;;;;;27.83;39.08;98818.28;5085698;28;20048;-68
2022/08/05 07:20:42;;;;;;;4.25;3.45;;;;;;;27.99;39.06;98812.44;5085588;28;20052;-68
2022/08/05 07:23:10;;;;;;;5.50;3.83;;;;;;;28.13;38.39;98811.38;5085392;28;20056;-68
2022/08/05 07:25:37;;;;;;;5.45;3.40;;;;;;;28.28;38.36;98806.56;5085051;28;20060;-68
2022/08/05 07:28:04;;;;;;;5.35;3.95;;;;;;;28.39;38.23;98805.91;5085865;28;20041;-68
2022/08/05 07:30:35;;;;;;;6.88;4.53;;;;;;;28.61;37.75;98802.97;5085237;28;20056;-68
2022/08/05 07:33:03;;;;;;;5.15;3.78;;;;;;;28.30;37.32;98739.06;5085158;28;20060;-68
2022/08/05 07:35:31;;;;;;;5.13;3.88;;;;;;;28.70;37.53;98810.69;5085356;28;20060;-68
2022/08/05 07:37:58;;;;;;;7.97;4.07;;;;;;;28.89;37.48;98808.97;5084966;28;20056;-68
2022/08/05 07:40:25;;;;;;;5.70;3.80;;;;;;;28.67;37.14;98761.22;5085141;28;20358;-68
2022/08/05 07:42:52;;;;;;;8.52;4.28;;;;;;;29.15;37.19;98799.84;5085214;28;20098;-68
2022/08/05 07:45:20;;;;;;;9.48;5.00;;;;;;;29.27;37.04;98800.84;5084961;28;20056;-69
2022/08/05 07:47:49;;;;;;;5.18;4.30;;;;;;;29.35;37.05;98797.84;5084623;28;20060;-69
2022/08/05 07:50:16;;;;;;;5.28;4.35;;;;;;;29.52;36.87;98797.34;5084997;28;20064;-69
2022/08/05 07:52:44;;;;;;;6.22;4.40;;;;;;;29.44;36.29;98789.41;5084975;28;20052;-68
2022/08/05 07:55:11;;;;;;;8.05;4.28;;;;;;;29.69;36.03;98803.97;5067576;28;20048;-68
2022/08/05 07:57:38;;;;;;;5.30;4.25;;;;;;;29.80;35.71;98797.78;5085116;28;20048;-67
2022/08/05 08:00:07;;;;;;;4.90;3.95;;;;;;;29.58;35.67;98729.06;5084694;28;20057;-69
2022/08/05 08:02:34;;;;;;;5.43;3.92;;;;;;;30.07;35.96;98801.16;5067444;28;20040;-68
2022/08/05 08:05:03;;;;;;;5.03;4.20;;;;;;;30.08;34.69;98788.31;5084932;28;20098;-68
2022/08/05 08:07:31;;;;;;;5.35;3.80;;;;;;;30.18;34.60;98794.16;5084822;28;20064;-69
2022/08/05 08:09:58;;;;;;;5.75;4.65;;;;;;;30.27;34.98;98784.63;5084951;28;20056;-69
2022/08/05 08:12:25;;;;;;;4.35;3.95;;;;;;;30.50;34.91;98812.16;5084945;28;20370;-69
2022/08/05 08:14:53;;;;;;;5.32;3.78;;;;;;;30.55;34.59;98811.47;5084634;28;20057;-69
2022/08/05 08:17:20;;;;;;;5.82;4.43;;;;;;;30.49;34.21;98785.03;5086268;28;20057;-71
2022/08/05 08:19:47;;;;;;;5.03;3.63;;;;;;;30.78;34.67;98806.19;5088792;28;20056;-68
2022/08/05 08:22:16;;;;;;;10.00;4.43;;;;;;;30.90;34.17;98801.63;5088676;28;20106;-68
2022/08/05 08:24:43;;;;;;;5.85;4.22;;;;;;;30.84;34.41;98805.28;5088692;28;20053;-68
2022/08/05 08:27:10;;;;;;;4.80;3.33;;;;;;;29.82;33.67;98637.28;5088951;28;20102;-68
2022/08/05 08:29:38;;;;;;;4.60;3.35;;;;;;;30.48;34.49;98735.00;5088661;28;20114;-67
2022/08/05 08:32:05;;;;;;;5.90;4.20;;;;;;;31.01;34.13;98797.28;5088602;28;20074;-68
2022/08/05 08:34:32;;;;;;;6.78;3.85;;;;;;;31.07;34.29;98795.53;5088468;28;20060;-68
2022/08/05 08:36:59;;;;;;;6.38;3.95;;;;;;;30.33;33.61;98677.97;5088631;28;20102;-69
2022/08/05 08:39:28;;;;;;;5.22;4.32;;;;;;;31.12;33.80;98802.00;5088168;28;20056;-68
2022/08/05 08:41:55;;;;;;;8.57;3.78;;;;;;;31.14;34.15;98813.53;5088506;28;20118;-69
2022/08/05 08:44:25;;;;;;;6.03;3.40;;;;;;;31.13;32.92;98794.63;5088279;28;20057;-68
2022/08/05 08:46:52;;;;;;;4.43;4.03;;;;;;;31.11;33.50;98752.97;5088547;28;20255;-68
2022/08/05 08:49:23;;;;;;;4.78;3.22;;;;;;;31.43;33.62;98790.00;5087820;28;20063;-68
2022/08/05 08:51:58;;;;;;;7.57;3.45;;;;;;;29.06;33.18;98395.53;5087848;28;20094;-68
2022/08/05 08:54:25;;;;;;;6.18;3.55;;;;;;;31.46;33.58;98777.75;5088228;28;20304;-68
2022/08/05 08:56:54;;;;;;;4.60;3.90;;;;;;;31.49;32.77;98764.44;5087993;28;20064;-68
2022/08/05 08:59:23;;;;;;;3.45;3.13;;;;;;;31.68;33.57;98780.81;5087716;28;20366;-68
2022/08/05 09:01:51;;;;;;;5.05;3.88;;;;;;;31.77;33.39;98776.69;5087967;28;20052;-68
2022/08/05 09:04:19;;;;;;;6.40;3.45;;;;;;;31.75;33.16;98762.34;5088057;28;20057;-68
2022/08/05 09:06:46;;;;;;;4.63;3.33;;;;;;;31.96;32.93;98781.00;5087561;28;20117;-68
2022/08/05 09:09:15;;;;;;;5.22;3.58;;;;;;;32.14;32.91;98780.06;5087820;28;20194;-68
2022/08/05 09:11:42;;;;;;;4.22;3.58;;;;;;;32.18;33.12;98781.25;5087626;28;20052;-68
2022/08/05 09:14:11;;;;;;;4.47;3.50;;;;;;;32.23;32.81;98786.84;5087709;28;20110;-68
2022/08/05 09:16:39;;;;;;;4.35;3.30;;;;;;;32.25;32.44;98784.72;5087647;28;20056;-68
2022/08/05 09:19:07;;;;;;;6.63;3.55;;;;;;;32.29;32.41;98777.72;5087605;28;20125;-68
2022/08/05 09:21:34;;;;;;;4.75;3.15;;;;;;;32.36;32.70;98783.06;5087596;28;20056;-68
2022/08/05 09:24:04;;;;;;;3.60;3.30;;;;;;;32.55;32.42;98781.88;5087877;28;20098;-68
2022/08/05 09:26:32;;;;;;;6.00;3.88;;;;;;;32.48;32.08;98783.91;5087797;28;20053;-68
2022/08/05 09:29:03;;;;;;;5.13;3.38;;;;;;;32.61;32.07;98780.06;5086543;28;20056;-68
2022/08/05 09:31:32;;;;;;;7.85;4.03;;;;;;;32.62;32.63;98779.81;5086956;28;20057;-68
2022/08/05 09:34:02;;;;;;;3.50;3.00;;;;;;;32.61;32.01;98780.06;5087416;28;20059;-69
2022/08/05 09:36:40;;;;;;;5.50;3.60;;;;;;;31.53;31.80;98581.34;5087458;28;20056;-69
2022/08/05 09:39:10;;;;;;;4.40;3.80;;;;;;;32.71;31.66;98777.53;5087568;28;20065;-68
2022/08/05 09:41:54;;;;;;;4.05;3.38;;;;;;;32.81;31.64;98780.56;5087474;28;20106;-69
2022/08/05 09:44:39;;;;;;;5.70;3.35;;;;;;;32.80;31.11;98779.69;5087680;28;20281;-69
2022/08/05 09:47:11;;;;;;;4.45;3.75;;;;;;;32.94;31.42;98777.56;5087257;28;20040;-69
2022/08/05 09:49:46;;;;;;;5.97;3.92;;;;;;;32.99;31.11;98774.91;5086623;28;20071;-68
2022/08/05 09:52:18;;;;;;;4.55;4.15;;;;;;;33.04;31.43;98768.69;5087224;28;20246;-68
2022/08/05 09:54:52;;;;;;;4.80;3.65;;;;;;;33.13;31.72;98770.81;5086976;28;20053;-69
2022/08/05 09:57:29;;;;;;;9.65;4.53;;;;;;;33.10;31.50;98751.25;5087005;28;20106;-69
2022/08/05 09:59:59;;;;;;;7.65;4.20;;;;;;;33.27;31.71;98765.03;5086963;28;20064;-68
2022/08/05 10:02:36;;;;;;;4.68;3.30;;;;;;;33.08;30.82;98720.47;5087118;28;20326;-69
2022/08/05 10:05:10;;;;;;;5.45;3.70;;;;;;;33.42;31.00;98770.84;5086726;28;20102;-68
2022/08/05 10:07:43;;;;;;;;;;;;;;;33.32;31.10;98770.66;5087852;28;20082;-69
2022/08/05 10:10:10;;;;;;;4.60;4.10;;;;;;;33.51;31.16;98766.59;5086819;28;19916;-68
2022/08/05 10:12:42;;;;;;;6.22;4.15;;;;;;;33.50;30.22;98763.03;5086886;28;20110;-68
2022/08/05 10:15:19;;;;;;;7.32;3.65;;;;;;;33.48;30.43;98756.09;5086695;28;20094;-68
2022/08/05 10:18:04;;;;;;;7.00;4.10;;;;;;;33.47;31.67;98754.44;5086731;28;20190;-69
2022/08/05 10:20:33;;;;;;;6.47;4.68;;;;;;;33.39;31.56;98749.34;5086550;28;20049;-69
2022/08/05 10:23:01;;;;;;;6.60;5.00;;;;;;;33.56;31.05;98757.63;5086056;28;20110;-69
2022/08/05 10:25:29;;;;;;;5.00;4.50;;;;;;;33.55;31.49;98739.47;5086438;28;20060;-69
2022/08/05 10:27:57;;;;;;;5.30;4.70;;;;;;;33.67;31.56;98749.31;5086482;28;20061;-69
2022/08/05 10:30:24;;;;;;;6.07;5.38;;;;;;;33.73;31.21;98728.25;5086302;28;20320;-68
2022/08/05 10:32:55;;;;;;;6.57;4.53;;;;;;;33.76;30.89;98736.00;5086291;28;20200;-68
2022/08/05 10:35:22;;;;;;;5.70;4.05;;;;;;;33.70;30.82;98729.56;5086275;28;20300;-69
2022/08/05 10:37:50;;;;;;;5.45;3.78;;;;;;;33.96;30.52;98752.84;5086347;28;20052;-68
2022/08/05 10:40:23;;;;;;;5.03;3.92;;;;;;;34.00;30.62;98758.66;5085847;28;20312;-69
2022/08/05 10:42:52;;;;;;;;;;;;;;;33.74;30.46;98749.16;5086199;28;20060;-71
2022/08/05 10:45:29;;;;;;;7.97;3.97;;;;;;;33.55;30.33;98695.53;5086292;28;20139;-69
2022/08/05 10:48:35;;;;;;;9.27;4.05;;;;;;;34.09;30.28;98747.00;5069250;28;20064;-70
2022/08/05 10:51:11;;;;;;;4.07;3.53;;;;;;;33.88;30.84;98675.47;5086102;28;20202;-70
2022/08/05 10:53:42;;;;;;;4.57;4.10;;;;;;;34.24;31.21;98732.66;5086083;28;20182;-69
2022/08/05 10:56:14;;;;;;;5.75;4.57;;;;;;;34.18;30.34;98741.91;5084304;28;20088;-68
2022/08/05 10:59:04;;;;;;;5.32;3.97;;;;;;;34.19;29.63;98735.31;5085797;28;20052;-69
2022/08/05 11:01:33;;;;;;;6.03;4.38;;;;;;;34.19;30.36;98746.31;5085575;28;20255;-69
2022/08/05 11:04:04;;;;;;;7.88;4.93;;;;;;;34.21;29.97;98740.56;5085589;28;20052;-69
2022/08/05 11:06:32;;;;;;;5.43;4.03;;;;;;;34.12;30.32;98721.75;5085871;28;20056;-68
2022/08/05 11:09:19;;;;;;;4.47;3.83;;;;;;;34.08;30.53;98734.34;5086117;28;20189;-68
2022/08/05 11:11:48;;;;;;;3.63;3.30;;;;;;;33.67;30.94;98675.13;5067884;28;20098;-69
2022/08/05 11:14:27;;;;;;;7.68;4.93;;;;;;;33.46;30.76;98657.47;5085435;28;20052;-68
2022/08/05 11:17:29;;;;;;;5.00;3.60;;;;;;;33.90;31.17;98737.34;5085723;28;20315;-69
2022/08/05 11:19:58;;;;;;;4.38;3.80;;;;;;;33.90;31.54;98729.09;5085391;28;20064;-69
2022/08/05 11:22:42;;;;;;;4.60;4.10;;;;;;;33.92;30.64;98732.44;5085507;28;20056;-69
2022/08/05 11:25:42;;;;;;;5.13;4.45;;;;;;;34.03;30.45;98726.00;5085129;28;20048;-69
2022/08/05 11:28:45;;;;;;;4.88;4.38;;;;;;;34.15;29.88;98731.41;5052333;28;20071;-69
2022/08/05 11:31:31;;;;;;;9.25;4.93;;;;;;;34.08;29.74;98708.75;5085462;28;20056;-69
2022/08/05 11:34:04;;;;;;;6.07;4.10;;;;;;;34.10;30.34;98712.09;5085413;28;20055;-69
2022/08/05 11:36:51;;;;;;;5.80;3.60;;;;;;;34.18;29.59;98730.06;5085549;28;20060;-69
2022/08/05 11:39:49;;;;;;;6.50;4.00;;;;;;;34.21;29.85;98724.06;5085302;28;20106;-69
2022/08/05 11:42:24;;;;;;;4.78;3.65;;;;;;;33.95;30.33;98674.22;5067561;28;20371;-69
2022/08/05 11:44:53;;;;;;;4.95;3.95;;;;;;;33.75;30.46;98654.63;5084968;28;20064;-69
2022/08/05 11:47:23;;;;;;;3.92;3.50;;;;;;;33.28;30.48;98575.31;5085090;28;20106;-69
2022/08/05 11:49:57;;;;;;;4.68;4.18;;;;;;;33.75;30.75;98647.22;5084782;28;20119;-69